createdAt,value
2019-02-25T00:00:01.645Z,99.90
2019-02-25T00:01:07.118Z,99.90
2019-02-25T00:02:12.440Z,99.90
2019-02-25T00:03:16.082Z,99.90
2019-02-25T00:04:19.676Z,99.90
2019-02-25T00:05:23.262Z,99.90
2019-02-25T00:06:26.989Z,99.90
2019-02-25T00:07:30.594Z,99.90
2019-02-25T00:08:34.224Z,99.90
2019-02-25T00:09:37.861Z,99.90
2019-02-25T00:10:41.482Z,99.90
2019-02-25T00:11:45.115Z,99.90
2019-02-25T00:12:48.713Z,99.90
2019-02-25T00:13:52.316Z,99.90
2019-02-25T00:14:55.899Z,99.90
2019-02-25T00:15:59.486Z,99.90
2019-02-25T00:17:03.176Z,99.90
2019-02-25T00:18:06.984Z,99.90
2019-02-25T00:19:10.588Z,99.90
2019-02-25T00:20:14.366Z,99.90
2019-02-25T00:21:17.955Z,99.90
2019-02-25T00:22:21.546Z,99.90
2019-02-25T00:23:25.202Z,99.90
2019-02-25T00:24:28.785Z,99.90
2019-02-25T00:25:32.485Z,99.90
2019-02-25T00:26:36.248Z,99.90
2019-02-25T00:27:39.792Z,99.90
2019-02-25T00:28:43.419Z,99.90
2019-02-25T00:29:47.244Z,99.90
2019-02-25T00:30:50.906Z,99.90
2019-02-25T00:31:54.487Z,99.90
2019-02-25T00:32:58.098Z,99.90
2019-02-25T00:34:01.815Z,99.90
2019-02-25T00:35:06.258Z,99.90
2019-02-25T00:36:09.856Z,99.90
2019-02-25T00:37:13.442Z,99.90
2019-02-25T00:38:17.085Z,99.90
2019-02-25T00:39:20.702Z,99.90
2019-02-25T00:40:24.371Z,99.90
2019-02-25T00:41:28.080Z,99.90
2019-02-25T00:42:31.679Z,99.90
2019-02-25T00:43:35.357Z,99.90
2019-02-25T00:44:39.044Z,99.90
2019-02-25T00:45:42.715Z,99.90
2019-02-25T00:46:46.373Z,99.90
2019-02-25T00:47:49.966Z,99.90
2019-02-25T00:48:53.543Z,99.90
2019-02-25T00:49:57.124Z,99.90
2019-02-25T00:51:00.823Z,99.90
2019-02-25T00:52:04.454Z,99.90
2019-02-25T00:53:08.115Z,99.90
2019-02-25T00:54:11.711Z,99.90
2019-02-25T00:55:15.466Z,99.90
2019-02-25T00:56:19.113Z,99.90
2019-02-25T00:57:22.694Z,99.90
2019-02-25T00:58:26.265Z,99.90
2019-02-25T00:59:29.836Z,99.90
2019-02-25T01:00:33.444Z,99.90
2019-02-25T01:01:37.152Z,99.90
2019-02-25T01:02:40.814Z,99.90
2019-02-25T01:03:44.476Z,99.90
2019-02-25T01:04:48.179Z,99.90
2019-02-25T01:05:51.931Z,99.90
2019-02-25T01:06:55.530Z,99.90
2019-02-25T01:07:59.289Z,99.90
2019-02-25T01:09:04.165Z,99.90
2019-02-25T01:10:10.312Z,99.90
2019-02-25T01:11:13.964Z,99.90
2019-02-25T01:12:17.622Z,99.90
2019-02-25T01:13:21.272Z,99.90
2019-02-25T01:14:24.893Z,99.90
2019-02-25T01:15:28.525Z,99.90
2019-02-25T01:16:32.135Z,99.90
2019-02-25T01:17:35.778Z,99.90
2019-02-25T01:18:39.432Z,99.90
2019-02-25T01:19:43.083Z,99.90
2019-02-25T01:20:46.676Z,99.90
2019-02-25T01:21:50.290Z,99.90
2019-02-25T01:22:53.907Z,99.90
2019-02-25T01:23:57.524Z,99.90
2019-02-25T01:25:01.124Z,99.90
2019-02-25T01:26:04.754Z,99.90
2019-02-25T01:27:08.333Z,99.90
2019-02-25T01:28:11.952Z,99.90
2019-02-25T01:29:15.620Z,99.90
2019-02-25T01:30:20.544Z,99.90
2019-02-25T01:31:24.249Z,99.90
2019-02-25T01:32:27.844Z,99.90
2019-02-25T01:33:31.506Z,99.90
2019-02-25T01:34:35.120Z,99.90
2019-02-25T01:35:38.698Z,99.90
2019-02-25T01:36:42.345Z,99.90
2019-02-25T01:37:46.010Z,99.90
2019-02-25T01:38:49.604Z,99.90
2019-02-25T01:39:53.212Z,99.90
2019-02-25T01:40:56.839Z,99.90
2019-02-25T01:42:00.523Z,99.90
2019-02-25T01:43:04.189Z,99.90
2019-02-25T01:44:07.804Z,99.90
2019-02-25T01:45:13.375Z,99.90
2019-02-25T01:46:16.960Z,99.90
2019-02-25T01:47:20.553Z,99.90
2019-02-25T01:48:24.150Z,99.90
2019-02-25T01:49:27.757Z,99.90
2019-02-25T01:50:31.394Z,99.90
2019-02-25T01:51:35.079Z,99.90
2019-02-25T01:52:38.680Z,99.90
2019-02-25T01:53:42.295Z,99.90
2019-02-25T01:54:45.912Z,99.90
2019-02-25T01:55:49.500Z,99.90
2019-02-25T01:56:53.189Z,99.90
2019-02-25T01:57:56.932Z,99.90
2019-02-25T01:59:00.524Z,99.90
2019-02-25T02:00:07.312Z,99.90
2019-02-25T02:01:10.933Z,99.90
2019-02-25T02:02:14.558Z,99.90
2019-02-25T02:03:18.189Z,99.90
2019-02-25T02:04:21.815Z,99.90
2019-02-25T02:05:25.432Z,99.90
2019-02-25T02:06:29.021Z,99.90
2019-02-25T02:07:32.601Z,99.90
2019-02-25T02:08:36.260Z,99.90
2019-02-25T02:09:39.881Z,99.90
2019-02-25T02:10:43.523Z,99.90
2019-02-25T02:11:47.116Z,99.90
2019-02-25T02:12:50.747Z,99.90
2019-02-25T02:13:54.331Z,99.90
2019-02-25T02:14:57.919Z,99.90
2019-02-25T02:16:01.551Z,99.90
2019-02-25T02:17:05.234Z,99.90
2019-02-25T02:18:08.869Z,99.90
2019-02-25T02:19:12.459Z,99.90
2019-02-25T02:20:17.156Z,99.90
2019-02-25T02:21:20.771Z,99.90
2019-02-25T02:22:24.361Z,99.90
2019-02-25T02:23:28.030Z,99.90
2019-02-25T02:24:31.664Z,99.90
2019-02-25T02:25:35.257Z,99.90
2019-02-25T02:26:38.873Z,99.90
2019-02-25T02:27:42.522Z,99.90
2019-02-25T02:28:46.185Z,99.90
2019-02-25T02:29:49.853Z,99.90
2019-02-25T02:30:53.434Z,99.90
2019-02-25T02:31:57.090Z,99.90
2019-02-25T02:33:00.695Z,99.90
2019-02-25T02:34:04.321Z,99.90
2019-02-25T02:35:08.006Z,99.90
2019-02-25T02:36:11.889Z,99.90
2019-02-25T02:37:15.562Z,99.90
2019-02-25T02:38:19.236Z,99.90
2019-02-25T02:39:22.853Z,99.90
2019-02-25T02:40:26.534Z,99.90
2019-02-25T02:41:31.697Z,99.90
2019-02-25T02:42:35.349Z,99.90
2019-02-25T02:43:38.975Z,99.90
2019-02-25T02:44:44.230Z,99.90
2019-02-25T02:46:03.021Z,99.90
2019-02-25T02:47:24.614Z,99.90
2019-02-25T02:48:37.226Z,99.90
2019-02-25T02:49:40.835Z,99.90
2019-02-25T02:50:44.434Z,99.90
2019-02-25T02:51:48.050Z,99.90
2019-02-25T02:52:51.711Z,99.90
2019-02-25T02:53:55.340Z,99.90
2019-02-25T02:54:58.936Z,99.90
2019-02-25T02:56:02.555Z,99.90
2019-02-25T02:57:06.233Z,99.90
2019-02-25T02:58:09.862Z,99.90
2019-02-25T02:59:13.500Z,99.90
2019-02-25T03:00:18.533Z,99.90
2019-02-25T03:01:22.113Z,99.90
2019-02-25T03:02:25.734Z,99.90
2019-02-25T03:03:29.380Z,99.90
2019-02-25T03:04:32.984Z,99.90
2019-02-25T03:05:36.620Z,99.90
2019-02-25T03:06:40.204Z,99.90
2019-02-25T03:07:43.887Z,99.90
2019-02-25T03:08:47.500Z,99.90
2019-02-25T03:09:51.168Z,99.90
2019-02-25T03:10:54.791Z,99.90
2019-02-25T03:11:58.377Z,99.90
2019-02-25T03:13:01.980Z,99.90
2019-02-25T03:14:05.557Z,99.90
2019-02-25T03:15:12.238Z,99.90
2019-02-25T03:16:15.922Z,99.90
2019-02-25T03:17:19.506Z,99.90
2019-02-25T03:18:23.129Z,99.90
2019-02-25T03:19:26.781Z,99.90
2019-02-25T03:20:30.369Z,99.90
2019-02-25T03:21:34.034Z,99.90
2019-02-25T03:22:37.622Z,99.90
2019-02-25T03:23:41.241Z,99.90
2019-02-25T03:24:44.829Z,99.90
2019-02-25T03:25:48.412Z,99.90
2019-02-25T03:26:52.025Z,99.90
2019-02-25T03:27:55.627Z,99.90
2019-02-25T03:28:59.233Z,99.90
2019-02-25T03:30:03.042Z,99.90
2019-02-25T03:31:06.639Z,99.90
2019-02-25T03:32:10.236Z,99.90
2019-02-25T03:33:13.805Z,99.90
2019-02-25T03:34:17.474Z,99.90
2019-02-25T03:35:21.134Z,99.90
2019-02-25T03:36:24.744Z,99.90
2019-02-25T03:37:28.383Z,99.90
2019-02-25T03:38:32.096Z,99.90
2019-02-25T03:39:35.728Z,99.90
2019-02-25T03:40:39.334Z,99.90
2019-02-25T03:41:42.909Z,99.90
2019-02-25T03:42:46.582Z,99.90
2019-02-25T03:43:50.202Z,99.90
2019-02-25T03:44:53.862Z,99.90
2019-02-25T03:45:57.486Z,99.90
2019-02-25T03:47:01.084Z,99.90
2019-02-25T03:48:04.749Z,99.90
2019-02-25T03:49:08.408Z,99.90
2019-02-25T03:50:12.171Z,99.90
2019-02-25T03:51:15.768Z,99.90
2019-02-25T03:52:19.360Z,99.90
2019-02-25T03:53:23.010Z,99.90
2019-02-25T03:54:26.657Z,99.90
2019-02-25T03:55:30.315Z,99.90
2019-02-25T03:56:33.911Z,99.90
2019-02-25T03:57:37.675Z,99.90
2019-02-25T03:58:41.342Z,99.90
2019-02-25T03:59:44.994Z,99.90
2019-02-25T04:00:48.631Z,99.90
2019-02-25T04:01:52.217Z,99.90
2019-02-25T04:02:55.909Z,99.90
2019-02-25T04:03:59.493Z,99.90
2019-02-25T04:05:03.171Z,99.90
2019-02-25T04:06:06.855Z,99.90
2019-02-25T04:07:10.460Z,99.90
2019-02-25T04:08:14.144Z,99.90
2019-02-25T04:09:17.814Z,99.90
2019-02-25T04:10:21.569Z,99.90
2019-02-25T04:11:25.208Z,99.90
2019-02-25T04:12:28.837Z,99.90
2019-02-25T04:13:32.429Z,99.90
2019-02-25T04:14:36.071Z,99.90
2019-02-25T04:15:41.334Z,99.90
2019-02-25T04:16:45.521Z,99.90
2019-02-25T04:17:49.195Z,99.90
2019-02-25T04:18:52.969Z,99.90
2019-02-25T04:19:56.554Z,99.90
2019-02-25T04:21:00.135Z,99.90
2019-02-25T04:22:03.863Z,99.90
2019-02-25T04:23:07.498Z,99.90
2019-02-25T04:24:11.144Z,99.90
2019-02-25T04:25:14.825Z,99.90
2019-02-25T04:26:18.423Z,99.90
2019-02-25T04:27:22.023Z,99.90
2019-02-25T04:28:25.639Z,99.90
2019-02-25T04:29:29.259Z,99.90
2019-02-25T04:30:32.882Z,99.90
2019-02-25T04:31:36.538Z,99.90
2019-02-25T04:32:40.276Z,99.90
2019-02-25T04:33:43.875Z,99.90
2019-02-25T04:34:47.468Z,99.90
2019-02-25T04:35:51.094Z,99.90
2019-02-25T04:36:54.743Z,99.90
2019-02-25T04:37:58.346Z,99.90
2019-02-25T04:39:01.949Z,99.90
2019-02-25T04:40:08.375Z,99.90
2019-02-25T04:41:11.919Z,99.90
2019-02-25T04:42:15.502Z,99.90
2019-02-25T04:43:19.090Z,99.90
2019-02-25T04:44:22.691Z,99.90
2019-02-25T04:45:26.389Z,99.90
2019-02-25T04:46:30.003Z,99.90
2019-02-25T04:47:33.612Z,99.90
2019-02-25T04:48:37.225Z,99.90
2019-02-25T04:49:40.847Z,99.90
2019-02-25T04:50:44.469Z,99.90
2019-02-25T04:51:48.051Z,99.90
2019-02-25T04:52:51.635Z,99.90
2019-02-25T04:53:55.259Z,99.90
2019-02-25T04:54:58.907Z,99.90
2019-02-25T04:56:02.538Z,99.90
2019-02-25T04:57:06.150Z,99.90
2019-02-25T04:58:09.792Z,99.90
2019-02-25T04:59:13.386Z,99.90
2019-02-25T05:00:22.407Z,99.90
2019-02-25T05:01:25.995Z,99.90
2019-02-25T05:02:29.585Z,99.90
2019-02-25T05:03:33.188Z,99.90
2019-02-25T05:04:36.816Z,99.90
2019-02-25T05:05:40.460Z,99.90
2019-02-25T05:06:44.073Z,99.90
2019-02-25T05:07:47.673Z,99.90
2019-02-25T05:08:51.263Z,99.90
2019-02-25T05:09:54.865Z,99.90
2019-02-25T05:10:58.489Z,99.90
2019-02-25T05:12:02.183Z,99.90
2019-02-25T05:13:06.870Z,99.90
2019-02-25T05:14:10.458Z,99.90
2019-02-25T05:15:19.025Z,99.90
2019-02-25T05:16:22.678Z,99.90
2019-02-25T05:17:26.401Z,99.90
2019-02-25T05:18:30.094Z,99.90
2019-02-25T05:19:33.742Z,99.90
2019-02-25T05:20:37.348Z,99.90
2019-02-25T05:21:40.956Z,99.90
2019-02-25T05:22:44.623Z,99.90
2019-02-25T05:23:48.217Z,99.90
2019-02-25T05:24:51.906Z,99.90
2019-02-25T05:25:55.489Z,99.90
2019-02-25T05:26:59.132Z,99.90
2019-02-25T05:28:02.705Z,99.90
2019-02-25T05:29:06.352Z,99.90
2019-02-25T05:30:12.571Z,99.90
2019-02-25T05:31:16.154Z,99.90
2019-02-25T05:32:19.740Z,99.90
2019-02-25T05:33:23.359Z,99.90
2019-02-25T05:34:26.941Z,99.90
2019-02-25T05:35:30.546Z,99.90
2019-02-25T05:36:34.135Z,99.90
2019-02-25T05:37:37.764Z,99.90
2019-02-25T05:38:41.483Z,99.90
2019-02-25T05:39:45.127Z,99.90
2019-02-25T05:40:48.707Z,99.90
2019-02-25T05:41:52.357Z,99.90
2019-02-25T05:42:55.925Z,99.90
2019-02-25T05:43:59.560Z,99.90
2019-02-25T05:45:03.155Z,99.90
2019-02-25T05:46:06.736Z,99.90
2019-02-25T05:47:10.358Z,99.90
2019-02-25T05:48:14.020Z,99.90
2019-02-25T05:49:17.626Z,99.90
2019-02-25T05:50:21.964Z,99.90
2019-02-25T05:51:25.582Z,99.90
2019-02-25T05:52:29.235Z,99.90
2019-02-25T05:53:32.926Z,99.90
2019-02-25T05:54:36.596Z,99.90
2019-02-25T05:55:40.270Z,99.90
2019-02-25T05:56:44.266Z,99.90
2019-02-25T05:57:47.848Z,99.90
2019-02-25T05:58:51.483Z,99.90
2019-02-25T05:59:55.111Z,99.90
2019-02-25T06:00:58.706Z,99.90
2019-02-25T06:02:02.321Z,99.90
2019-02-25T06:03:06.038Z,99.90
2019-02-25T06:04:09.750Z,99.90
2019-02-25T06:05:13.338Z,99.90
2019-02-25T06:06:16.979Z,99.90
2019-02-25T06:07:20.601Z,99.90
2019-02-25T06:08:24.251Z,99.90
2019-02-25T06:09:27.902Z,99.90
2019-02-25T06:10:31.509Z,99.90
2019-02-25T06:11:35.107Z,99.90
2019-02-25T06:12:38.720Z,99.90
2019-02-25T06:13:42.419Z,99.90
2019-02-25T06:14:46.042Z,99.90
2019-02-25T06:15:51.316Z,99.90
2019-02-25T06:16:55.161Z,99.90
2019-02-25T06:17:59.121Z,99.90
2019-02-25T06:19:02.738Z,99.90
2019-02-25T06:20:12.077Z,99.90
2019-02-25T06:21:15.840Z,99.90
2019-02-25T06:22:19.479Z,99.90
2019-02-25T06:23:23.088Z,99.90
2019-02-25T06:24:26.679Z,99.90
2019-02-25T06:25:30.760Z,99.90
2019-02-25T06:26:35.170Z,99.90
2019-02-25T06:27:38.755Z,99.90
2019-02-25T06:28:42.442Z,99.90
2019-02-25T06:29:46.515Z,99.90
2019-02-25T06:30:50.195Z,99.90
2019-02-25T06:31:54.204Z,99.90
2019-02-25T06:32:57.830Z,99.90
2019-02-25T06:34:01.430Z,99.90
2019-02-25T06:35:06.778Z,99.90
2019-02-25T06:36:10.624Z,99.90
2019-02-25T06:37:14.251Z,99.90
2019-02-25T06:38:17.895Z,99.90
2019-02-25T06:39:21.569Z,99.90
2019-02-25T06:40:25.176Z,99.90
2019-02-25T06:41:28.826Z,99.90
2019-02-25T06:42:32.431Z,99.90
2019-02-25T06:43:35.999Z,99.90
2019-02-25T06:44:39.523Z,99.90
2019-02-25T06:45:43.164Z,99.90
2019-02-25T06:46:46.878Z,99.90
2019-02-25T06:47:50.469Z,99.90
2019-02-25T06:48:54.082Z,99.90
2019-02-25T06:49:57.684Z,99.90
2019-02-25T06:51:01.329Z,99.90
2019-02-25T06:52:05.004Z,99.90
2019-02-25T06:53:08.650Z,99.90
2019-02-25T06:54:12.247Z,99.90
2019-02-25T06:55:16.651Z,99.90
2019-02-25T06:56:20.281Z,99.90
2019-02-25T06:57:23.891Z,99.90
2019-02-25T06:58:27.535Z,99.90
2019-02-25T06:59:31.153Z,99.90
2019-02-25T07:00:34.735Z,99.90
2019-02-25T07:01:38.459Z,99.90
2019-02-25T07:02:42.034Z,99.90
2019-02-25T07:03:47.415Z,99.90
2019-02-25T07:04:52.665Z,99.90
2019-02-25T07:06:03.549Z,99.90
2019-02-25T07:07:08.776Z,99.90
2019-02-25T07:08:14.100Z,99.90
2019-02-25T07:09:19.402Z,99.90
2019-02-25T07:10:33.693Z,99.90
2019-02-25T07:11:41.501Z,99.90
2019-02-25T07:12:46.752Z,99.90
2019-02-25T07:13:54.886Z,99.90
2019-02-25T07:15:00.303Z,99.90
2019-02-25T07:16:05.781Z,99.90
2019-02-25T07:17:27.428Z,99.90
2019-02-25T07:18:38.223Z,99.90
2019-02-25T07:19:46.757Z,99.90
2019-02-25T07:20:52.046Z,99.90
2019-02-25T07:21:59.810Z,99.90
2019-02-25T07:23:07.740Z,99.90
2019-02-25T07:24:21.762Z,99.90
2019-02-25T07:25:43.399Z,99.90
2019-02-25T07:26:57.618Z,99.90
2019-02-25T07:28:11.601Z,99.90
2019-02-25T07:29:25.752Z,99.90
2019-02-25T07:30:33.656Z,99.90
2019-02-25T07:31:48.070Z,99.90
2019-02-25T07:32:56.131Z,99.90
2019-02-25T07:34:13.449Z,99.90
2019-02-25T07:35:21.624Z,99.90
2019-02-25T07:36:32.447Z,99.90
2019-02-25T07:37:54.034Z,99.90
2019-02-25T07:38:59.305Z,99.90
2019-02-25T07:40:21.216Z,99.90
2019-02-25T07:41:32.234Z,99.90
2019-02-25T07:42:52.704Z,99.90
2019-02-25T07:43:57.960Z,99.90
2019-02-25T07:45:11.885Z,99.90
2019-02-25T07:46:22.976Z,99.90
2019-02-25T07:47:28.680Z,99.90
2019-02-25T07:48:42.952Z,99.90
2019-02-25T07:49:51.000Z,99.90
2019-02-25T07:50:56.229Z,99.90
2019-02-25T07:52:13.272Z,99.90
2019-02-25T07:53:30.450Z,99.90
2019-02-25T07:54:35.778Z,99.90
2019-02-25T07:55:40.994Z,99.90
2019-02-25T07:56:46.242Z,99.90
2019-02-25T07:57:53.991Z,99.90
2019-02-25T07:59:15.439Z,99.90
2019-02-25T08:00:26.702Z,99.90
2019-02-25T08:01:31.963Z,99.90
2019-02-25T08:02:39.905Z,99.90
2019-02-25T08:03:53.882Z,99.90
2019-02-25T08:04:59.104Z,99.90
2019-02-25T08:06:04.414Z,99.90
2019-02-25T08:07:18.398Z,99.90
2019-02-25T08:08:26.426Z,99.90
2019-02-25T08:09:31.708Z,99.90
2019-02-25T08:10:45.512Z,99.90
2019-02-25T08:11:59.783Z,99.90
2019-02-25T08:13:07.876Z,99.90
2019-02-25T08:14:18.825Z,99.90
2019-02-25T08:15:24.075Z,99.90
2019-02-25T08:16:29.326Z,99.90
2019-02-25T08:17:34.558Z,99.90
2019-02-25T08:18:55.960Z,99.90
2019-02-25T08:20:04.016Z,99.90
2019-02-25T08:21:09.253Z,99.90
2019-02-25T08:22:29.672Z,99.90
2019-02-25T08:23:34.992Z,99.90
2019-02-25T08:24:55.219Z,99.90
2019-02-25T08:26:12.461Z,99.90
2019-02-25T08:27:23.173Z,99.90
2019-02-25T08:28:32.631Z,99.90
2019-02-25T08:29:46.551Z,99.90
2019-02-25T08:30:57.599Z,99.90
2019-02-25T08:32:02.865Z,99.90
2019-02-25T08:33:14.067Z,99.90
2019-02-25T08:34:22.006Z,99.90
2019-02-25T08:35:48.494Z,99.90
2019-02-25T08:37:14.791Z,99.90
2019-02-25T08:38:25.468Z,99.90
2019-02-25T08:39:33.767Z,99.90
2019-02-25T08:40:42.131Z,99.90
2019-02-25T08:41:59.207Z,99.90
2019-02-25T08:43:18.421Z,99.90
2019-02-25T08:44:26.788Z,99.90
2019-02-25T08:45:32.046Z,99.90
2019-02-25T08:46:37.393Z,99.90
2019-02-25T08:47:48.507Z,99.90
2019-02-25T08:48:53.739Z,99.90
2019-02-25T08:49:57.441Z,99.90
2019-02-25T08:51:01.219Z,99.90
2019-02-25T08:52:04.936Z,99.90
2019-02-25T08:53:08.539Z,99.90
2019-02-25T08:54:12.132Z,99.90
2019-02-25T08:55:15.737Z,99.90
2019-02-25T08:56:19.318Z,99.90
2019-02-25T08:57:23.039Z,99.90
2019-02-25T08:58:26.739Z,99.90
2019-02-25T08:59:30.367Z,99.90
2019-02-25T09:00:34.026Z,99.90
2019-02-25T09:01:37.613Z,99.90
2019-02-25T09:02:41.236Z,99.90
2019-02-25T09:03:44.834Z,99.90
2019-02-25T09:04:49.296Z,99.90
2019-02-25T09:05:52.950Z,99.90
2019-02-25T09:06:56.579Z,99.90
2019-02-25T09:08:00.275Z,99.90
2019-02-25T09:09:05.611Z,99.90
2019-02-25T09:10:13.432Z,99.90
2019-02-25T09:11:17.257Z,99.90
2019-02-25T09:12:20.882Z,99.90
2019-02-25T09:13:24.472Z,99.90
2019-02-25T09:14:28.087Z,99.90
2019-02-25T09:15:32.512Z,99.90
2019-02-25T09:16:36.229Z,99.90
2019-02-25T09:17:45.689Z,99.90
2019-02-25T09:18:49.356Z,99.90
2019-02-25T09:19:53.062Z,99.90
2019-02-25T09:20:56.660Z,99.90
2019-02-25T09:22:00.246Z,99.90
2019-02-25T09:23:03.819Z,99.90
2019-02-25T09:24:07.441Z,99.90
2019-02-25T09:25:14.913Z,99.90
2019-02-25T09:26:18.481Z,99.90
2019-02-25T09:27:22.076Z,99.90
2019-02-25T09:28:25.723Z,99.90
2019-02-25T09:29:29.299Z,99.90
2019-02-25T09:30:32.915Z,99.90
2019-02-25T09:31:36.574Z,99.90
2019-02-25T09:32:40.181Z,99.90
2019-02-25T09:33:43.818Z,99.90
2019-02-25T09:34:47.459Z,99.90
2019-02-25T09:35:51.015Z,99.90
2019-02-25T09:36:54.613Z,99.90
2019-02-25T09:37:58.249Z,99.90
2019-02-25T09:39:01.829Z,99.90
2019-02-25T09:40:14.483Z,99.90
2019-02-25T09:41:18.072Z,99.90
2019-02-25T09:42:21.695Z,99.90
2019-02-25T09:43:25.370Z,99.90
2019-02-25T09:44:28.924Z,99.90
2019-02-25T09:45:32.679Z,98.30
2019-02-25T09:46:36.289Z,89.50
2019-02-25T09:47:39.889Z,77.90
2019-02-25T09:48:43.465Z,69.70
2019-02-25T09:49:47.096Z,61.80
2019-02-25T09:50:50.790Z,57.60
2019-02-25T09:51:54.399Z,56.70
2019-02-25T09:52:58.043Z,55.30
2019-02-25T09:54:01.664Z,51.60
2019-02-25T09:55:07.706Z,49.70
2019-02-25T09:56:11.302Z,48.70
2019-02-25T09:57:14.957Z,47.30
2019-02-25T09:58:18.614Z,44.20
2019-02-25T09:59:22.217Z,42.90
2019-02-25T10:00:25.818Z,41.80
2019-02-25T10:01:29.440Z,41.50
2019-02-25T10:02:33.034Z,40.50
2019-02-25T10:03:36.645Z,40.00
2019-02-25T10:04:40.228Z,39.30
2019-02-25T10:05:43.810Z,38.90
2019-02-25T10:06:47.448Z,39.30
2019-02-25T10:07:51.052Z,39.70
2019-02-25T10:08:54.692Z,39.10
2019-02-25T10:09:58.295Z,36.70
2019-02-25T10:11:01.882Z,36.30
2019-02-25T10:12:05.567Z,36.50
2019-02-25T10:13:09.252Z,35.30
2019-02-25T10:14:12.839Z,34.90
2019-02-25T10:15:21.182Z,35.00
2019-02-25T10:16:24.860Z,34.60
2019-02-25T10:17:28.471Z,34.00
2019-02-25T10:18:32.276Z,34.00
2019-02-25T10:19:35.862Z,34.00
2019-02-25T10:20:39.459Z,34.10
2019-02-25T10:21:43.108Z,34.00
2019-02-25T10:22:46.735Z,33.50
2019-02-25T10:23:50.316Z,34.70
2019-02-25T10:24:53.918Z,34.30
2019-02-25T10:25:57.556Z,33.90
2019-02-25T10:27:01.223Z,33.60
2019-02-25T10:28:04.893Z,34.00
2019-02-25T10:29:08.532Z,33.80
2019-02-25T10:30:14.684Z,33.90
2019-02-25T10:31:18.256Z,34.40
2019-02-25T10:32:23.668Z,34.10
2019-02-25T10:33:27.210Z,33.40
2019-02-25T10:34:30.798Z,31.80
2019-02-25T10:35:34.385Z,31.10
2019-02-25T10:36:37.977Z,31.40
2019-02-25T10:37:43.676Z,31.20
2019-02-25T10:38:46.894Z,31.90
2019-02-25T10:39:51.466Z,31.90
2019-02-25T10:40:55.066Z,31.90
2019-02-25T10:41:59.641Z,31.90
2019-02-25T10:43:04.052Z,32.10
2019-02-25T10:44:08.495Z,32.50
2019-02-25T10:45:17.142Z,31.10
2019-02-25T10:46:20.809Z,31.80
2019-02-25T10:47:24.419Z,31.40
2019-02-25T10:48:28.011Z,30.90
2019-02-25T10:49:33.570Z,31.50
2019-02-25T10:50:38.640Z,31.60
2019-02-25T10:51:43.938Z,30.00
2019-02-25T10:52:49.382Z,29.80
2019-02-25T10:53:53.632Z,30.20
2019-02-25T10:54:58.289Z,31.50
2019-02-25T10:56:14.441Z,30.10
2019-02-25T10:57:19.347Z,30.00
2019-02-25T10:58:25.186Z,31.90
2019-02-25T10:59:29.847Z,31.90
2019-02-25T11:00:35.197Z,32.20
2019-02-25T11:01:41.290Z,31.10
2019-02-25T11:02:46.784Z,30.90
2019-02-25T11:03:52.050Z,31.40
2019-02-25T11:04:56.087Z,32.10
2019-02-25T11:06:02.864Z,31.00
2019-02-25T11:07:07.833Z,32.00
2019-02-25T11:08:13.872Z,32.70
2019-02-25T11:09:31.369Z,31.20
2019-02-25T11:10:36.752Z,30.10
2019-02-25T11:11:41.514Z,31.00
2019-02-25T11:12:45.197Z,30.90
2019-02-25T11:13:48.896Z,31.30
2019-02-25T11:14:52.559Z,31.10
2019-02-25T11:15:56.146Z,31.50
2019-02-25T11:16:59.829Z,31.40
2019-02-25T11:18:03.663Z,31.30
2019-02-25T11:19:07.476Z,30.50
2019-02-25T11:20:14.393Z,30.70
2019-02-25T11:21:17.999Z,31.20
2019-02-25T11:22:21.607Z,31.70
2019-02-25T11:23:25.195Z,32.10
2019-02-25T11:24:28.820Z,31.70
2019-02-25T11:25:32.416Z,32.80
2019-02-25T11:26:37.013Z,31.80
2019-02-25T11:27:40.999Z,32.90
2019-02-25T11:28:44.675Z,32.80
2019-02-25T11:29:48.515Z,33.50
2019-02-25T11:30:53.743Z,33.90
2019-02-25T11:31:57.495Z,34.20
2019-02-25T11:33:01.092Z,34.60
2019-02-25T11:34:05.794Z,34.40
2019-02-25T11:35:12.995Z,34.50
2019-02-25T11:36:17.712Z,34.80
2019-02-25T11:37:24.483Z,35.60
2019-02-25T11:38:28.688Z,35.10
2019-02-25T11:39:33.187Z,35.90
2019-02-25T11:40:38.406Z,36.70
2019-02-25T11:41:41.996Z,37.00
2019-02-25T11:42:45.722Z,37.80
2019-02-25T11:43:50.972Z,37.60
2019-02-25T11:44:56.499Z,38.00
2019-02-25T11:45:59.881Z,37.70
2019-02-25T11:47:03.525Z,38.20
2019-02-25T11:48:07.140Z,38.90
2019-02-25T11:49:10.751Z,39.70
2019-02-25T11:50:19.041Z,39.60
2019-02-25T11:51:22.790Z,39.80
2019-02-25T11:52:26.474Z,39.80
2019-02-25T11:53:30.067Z,39.10
2019-02-25T11:54:33.611Z,39.90
2019-02-25T11:55:37.320Z,39.50
2019-02-25T11:56:41.048Z,38.50
2019-02-25T11:57:44.929Z,38.40
2019-02-25T11:58:48.544Z,37.80
2019-02-25T11:59:52.141Z,37.60
2019-02-25T12:00:55.775Z,37.10
2019-02-25T12:01:59.377Z,36.50
2019-02-25T12:03:02.987Z,36.80
2019-02-25T12:04:06.707Z,37.40
2019-02-25T12:05:11.029Z,37.10
2019-02-25T12:06:14.660Z,37.30
2019-02-25T12:07:18.375Z,36.80
2019-02-25T12:08:21.980Z,37.40
2019-02-25T12:09:25.588Z,36.60
2019-02-25T12:10:29.173Z,36.90
2019-02-25T12:11:32.855Z,36.30
2019-02-25T12:12:36.444Z,36.20
2019-02-25T12:13:40.029Z,36.30
2019-02-25T12:14:43.636Z,35.70
2019-02-25T12:15:47.240Z,35.70
2019-02-25T12:16:50.861Z,36.30
2019-02-25T12:17:54.526Z,36.20
2019-02-25T12:18:58.135Z,36.10
2019-02-25T12:20:01.736Z,35.50
2019-02-25T12:21:05.981Z,36.30
2019-02-25T12:22:09.586Z,35.40
2019-02-25T12:23:13.182Z,35.20
2019-02-25T12:24:16.836Z,35.20
2019-02-25T12:25:22.685Z,34.50
2019-02-25T12:26:26.280Z,34.30
2019-02-25T12:27:29.857Z,34.00
2019-02-25T12:28:33.433Z,33.50
2019-02-25T12:29:37.131Z,32.70
2019-02-25T12:30:40.842Z,32.60
2019-02-25T12:31:44.434Z,33.10
2019-02-25T12:32:48.043Z,32.90
2019-02-25T12:33:51.668Z,32.50
2019-02-25T12:34:55.278Z,32.10
2019-02-25T12:35:58.868Z,33.10
2019-02-25T12:37:02.485Z,31.20
2019-02-25T12:38:06.098Z,30.80
2019-02-25T12:39:09.725Z,31.30
2019-02-25T12:40:14.767Z,32.80
2019-02-25T12:41:18.385Z,30.90
2019-02-25T12:42:22.125Z,31.50
2019-02-25T12:43:25.739Z,32.10
2019-02-25T12:44:29.354Z,31.90
2019-02-25T12:45:32.957Z,32.40
2019-02-25T12:46:36.568Z,32.60
2019-02-25T12:47:40.272Z,31.70
2019-02-25T12:48:43.882Z,31.30
2019-02-25T12:49:47.482Z,32.10
2019-02-25T12:50:51.117Z,32.50
2019-02-25T12:51:54.750Z,31.00
2019-02-25T12:52:58.325Z,31.20
2019-02-25T12:54:01.964Z,31.90
2019-02-25T12:55:08.804Z,31.70
2019-02-25T12:56:12.397Z,31.00
2019-02-25T12:57:16.037Z,30.90
2019-02-25T12:58:19.654Z,30.10
2019-02-25T12:59:23.237Z,30.30
2019-02-25T13:00:26.967Z,30.80
2019-02-25T13:01:30.557Z,31.10
2019-02-25T13:02:34.200Z,30.00
2019-02-25T13:03:37.782Z,30.10
2019-02-25T13:04:41.388Z,29.70
2019-02-25T13:05:45.127Z,30.00
2019-02-25T13:06:48.714Z,30.50
2019-02-25T13:07:52.305Z,31.90
2019-02-25T13:08:55.884Z,31.30
2019-02-25T13:09:59.489Z,31.30
2019-02-25T13:11:03.107Z,31.30
2019-02-25T13:12:06.692Z,32.50
2019-02-25T13:13:10.291Z,30.90
2019-02-25T13:14:13.919Z,31.40
2019-02-25T13:15:18.664Z,31.60
2019-02-25T13:16:22.241Z,31.20
2019-02-25T13:17:25.881Z,30.90
2019-02-25T13:18:29.460Z,30.40
2019-02-25T13:19:33.064Z,30.50
2019-02-25T13:20:36.663Z,31.20
2019-02-25T13:21:40.367Z,32.50
2019-02-25T13:22:43.914Z,32.40
2019-02-25T13:23:47.526Z,30.90
2019-02-25T13:24:51.148Z,31.70
2019-02-25T13:25:54.799Z,31.00
2019-02-25T13:26:58.396Z,30.80
2019-02-25T13:28:04.044Z,32.50
2019-02-25T13:29:07.248Z,32.30
2019-02-25T13:30:15.461Z,30.80
2019-02-25T13:31:19.065Z,30.60
2019-02-25T13:32:22.656Z,31.20
2019-02-25T13:33:26.493Z,30.80
2019-02-25T13:34:30.283Z,31.80
2019-02-25T13:35:33.858Z,32.30
2019-02-25T13:36:37.456Z,33.30
2019-02-25T13:37:41.107Z,33.00
2019-02-25T13:38:44.754Z,32.50
2019-02-25T13:39:48.347Z,32.20
2019-02-25T13:40:51.963Z,32.20
2019-02-25T13:41:55.582Z,32.10
2019-02-25T13:42:59.312Z,33.70
2019-02-25T13:44:02.898Z,33.90
2019-02-25T13:45:09.673Z,32.50
2019-02-25T13:46:13.261Z,32.50
2019-02-25T13:47:17.087Z,33.50
2019-02-25T13:48:20.705Z,33.30
2019-02-25T13:49:24.302Z,32.10
2019-02-25T13:50:27.900Z,31.80
2019-02-25T13:51:31.528Z,32.60
2019-02-25T13:52:35.115Z,31.90
2019-02-25T13:53:38.695Z,32.30